Time,TemperatureF,DewpointF,PressureIn,WindDirection,WindDirectionDegrees,WindSpeedMPH,WindSpeedGustMPH,Humidity,HourlyPrecipIn,Conditions,Clouds,dailyrainin,SoftwareType,DateUTC
2013-01-08 00:00:00,30.7,12.4,30.53,NNE,19,0.0,0.0,46,0.00,,,0.00,VWS V12.08,2013-01-08 05:00:00,
2013-01-08 00:07:00,30.7,12.4,30.53,NNE,19,0.0,0.0,46,0.00,,,0.00,VWS V12.08,2013-01-08 05:07:00,
2013-01-08 00:08:00,30.7,12.4,30.53,NNE,20,0.0,0.0,46,0.00,,,0.00,VWS V12.08,2013-01-08 05:08:00,
2013-01-08 00:14:00,30.4,12.1,30.53,NNE,19,0.0,0.0,46,0.00,,,0.00,VWS V12.08,2013-01-08 05:14:00,
2013-01-08 00:20:00,30.4,12.1,30.53,NNE,19,0.0,0.0,46,0.00,,,0.00,VWS V12.08,2013-01-08 05:20:00,
2013-01-08 00:25:00,30.4,12.1,30.53,NNE,19,0.0,0.0,46,0.00,,,0.00,VWS V12.08,2013-01-08 05:25:00,
2013-01-08 00:35:00,30.2,11.9,30.53,NNE,19,0.0,0.0,46,0.00,,,0.00,VWS V12.08,2013-01-08 05:35:00,
2013-01-08 00:40:00,30.2,11.9,30.50,NNE,19,0.0,0.0,46,0.00,,,0.00,VWS V12.08,2013-01-08 05:40:00,
2013-01-08 00:44:00,30.2,11.9,30.50,NNE,19,0.0,0.0,46,0.00,,,0.00,VWS V12.08,2013-01-08 05:44:00,
2013-01-08 00:50:00,30.0,11.8,30.50,NNE,19,0.0,0.0,46,0.00,,,0.00,VWS V12.08,2013-01-08 05:50:00,
2013-01-08 00:59:00,29.8,11.6,30.53,NNE,19,0.0,0.0,46,0.00,,,0.00,VWS V12.08,2013-01-08 05:59:00,
2013-01-08 01:00:00,29.8,11.6,30.53,NNE,19,0.0,0.0,46,0.00,,,0.00,VWS V12.08,2013-01-08 06:00:00,
2013-01-08 01:08:00,29.8,11.6,30.53,NNE,19,0.0,0.0,46,0.00,,,0.00,VWS V12.08,2013-01-08 06:08:00,
2013-01-08 01:14:00,29.8,11.6,30.53,SE,134,0.0,0.0,46,0.00,,,0.00,VWS V12.08,2013-01-08 06:14:00,
2013-01-08 01:20:00,29.7,11.4,30.53,SSE,150,0.0,0.0,46,0.00,,,0.00,VWS V12.08,2013-01-08 06:20:00,
2013-01-08 01:29:00,29.8,11.6,30.50,SSE,164,0.0,0.0,46,0.00,,,0.00,VWS V12.08,2013-01-08 06:29:00,
2013-01-08 01:35:00,29.8,11.6,30.50,SSE,164,0.0,0.0,46,0.00,,,0.00,VWS V12.08,2013-01-08 06:35:00,
2013-01-08 01:40:00,30.2,11.9,30.53,South,185,0.0,0.0,46,0.00,,,0.00,VWS V12.08,2013-01-08 06:40:00,
2013-01-08 01:44:00,30.2,11.9,30.53,South,185,0.0,0.0,46,0.00,,,0.00,VWS V12.08,2013-01-08 06:44:00,
2013-01-08 01:50:00,30.4,12.1,30.53,South,182,0.0,2.2,46,0.00,,,0.00,VWS V12.08,2013-01-08 06:50:00,
2013-01-08 01:59:00,30.9,12.6,30.53,SSE,167,0.0,4.0,46,0.00,,,0.00,VWS V12.08,2013-01-08 06:59:00,
2013-01-08 02:00:00,31.3,12.9,30.53,SSE,164,0.0,4.0,46,0.00,,,0.00,VWS V12.08,2013-01-08 07:00:00,
2013-01-08 02:08:00,31.3,12.9,30.53,SSE,164,0.0,4.0,46,0.00,,,0.00,VWS V12.08,2013-01-08 07:08:00,
2013-01-08 02:15:00,32.0,14.1,30.53,SSE,158,2.2,3.1,47,0.00,,,0.00,VWS V12.08,2013-01-08 07:15:00,
2013-01-08 02:20:00,32.4,14.4,30.53,SSE,168,0.0,3.1,47,0.00,,,0.00,VWS V12.08,2013-01-08 07:20:00,
2013-01-08 02:30:00,32.7,14.7,30.50,SSW,192,0.0,0.0,47,0.00,,,0.00,VWS V12.08,2013-01-08 07:30:00,
2013-01-08 02:35:00,33.1,15.5,30.50,SSE,150,2.2,3.6,48,0.00,,,0.00,VWS V12.08,2013-01-08 07:35:00,
2013-01-08 02:45:00,33.8,15.7,30.50,WSW,244,0.0,4.9,47,0.00,,,0.00,VWS V12.08,2013-01-08 07:45:00,
2013-01-08 02:50:00,34.0,15.9,30.50,SE,144,0.0,2.7,47,0.00,,,0.00,VWS V12.08,2013-01-08 07:50:00,
2013-01-08 03:00:00,34.3,16.7,30.50,SSE,160,0.0,4.9,48,0.00,,,0.00,VWS V12.08,2013-01-08 08:00:00,
2013-01-08 03:08:00,34.5,16.9,30.50,South,183,2.7,4.9,48,0.00,,,0.00,VWS V12.08,2013-01-08 08:08:00,
2013-01-08 03:15:00,34.9,17.2,30.50,SSE,168,0.0,3.6,48,0.00,,,0.00,VWS V12.08,2013-01-08 08:15:00,
2013-01-08 03:20:00,35.1,17.4,30.50,South,182,0.0,3.6,48,0.00,,,0.00,VWS V12.08,2013-01-08 08:20:00,
2013-01-08 03:30:00,35.2,18.0,30.50,South,176,0.0,3.6,49,0.00,,,0.00,VWS V12.08,2013-01-08 08:30:00,
2013-01-08 03:35:00,35.4,18.2,30.50,SE,138,0.0,3.6,49,0.00,,,0.00,VWS V12.08,2013-01-08 08:35:00,
2013-01-08 03:45:00,35.6,18.3,30.50,South,169,0.0,3.6,49,0.00,,,0.00,VWS V12.08,2013-01-08 08:45:00,
2013-01-08 03:50:00,35.8,18.5,30.50,SSW,204,0.0,3.6,49,0.00,,,0.00,VWS V12.08,2013-01-08 08:50:00,
2013-01-08 04:00:00,35.8,18.5,30.50,SSW,196,0.0,3.6,49,0.00,,,0.00,VWS V12.08,2013-01-08 09:00:00,
2013-01-08 04:08:00,35.8,18.5,30.50,SSW,205,0.0,3.6,49,0.00,,,0.00,VWS V12.08,2013-01-08 09:08:00,
2013-01-08 04:15:00,36.0,18.7,30.47,SSW,202,0.0,4.9,49,0.00,,,0.00,VWS V12.08,2013-01-08 09:15:00,
2013-01-08 04:24:00,36.3,19.0,30.47,South,180,0.0,4.9,49,0.00,,,0.00,VWS V12.08,2013-01-08 09:24:00,
2013-01-08 04:34:00,36.3,19.5,30.47,SW,230,0.0,3.1,50,0.00,,,0.00,VWS V12.08,2013-01-08 09:34:00,
2013-01-08 04:44:00,36.5,19.6,30.47,SSW,193,0.0,4.0,50,0.00,,,0.00,VWS V12.08,2013-01-08 09:44:00,
2013-01-08 04:49:00,36.7,19.8,30.47,SSW,208,0.0,0.0,50,0.00,,,0.00,VWS V12.08,2013-01-08 09:49:00,
2013-01-08 04:59:00,36.7,19.8,30.47,SSE,148,4.0,4.0,50,0.00,,,0.00,VWS V12.08,2013-01-08 09:59:00,
2013-01-08 05:07:00,36.9,20.0,30.47,SSW,209,0.0,4.0,50,0.00,,,0.00,VWS V12.08,2013-01-08 10:07:00,
2013-01-08 05:14:00,36.9,20.0,30.47,WSW,241,0.0,5.4,50,0.00,,,0.00,VWS V12.08,2013-01-08 10:14:00,
2013-01-08 05:19:00,36.9,20.0,30.47,SW,232,0.0,5.4,50,0.00,,,0.00,VWS V12.08,2013-01-08 10:19:00,
2013-01-08 05:29:00,37.0,20.1,30.47,SSW,208,0.0,2.7,50,0.00,,,0.00,VWS V12.08,2013-01-08 10:29:00,
2013-01-08 05:35:00,37.0,20.1,30.47,SSW,193,0.0,3.6,50,0.00,,,0.00,VWS V12.08,2013-01-08 10:35:00,
2013-01-08 05:44:00,37.0,20.1,30.47,SSE,158,0.0,3.6,50,0.00,,,0.00,VWS V12.08,2013-01-08 10:44:00,
2013-01-08 05:50:00,37.0,20.1,30.47,SE,130,0.0,2.2,50,0.00,,,0.00,VWS V12.08,2013-01-08 10:50:00,
2013-01-08 05:59:00,37.0,20.1,30.47,SSW,193,0.0,4.5,50,0.00,,,0.00,VWS V12.08,2013-01-08 10:59:00,
2013-01-08 06:07:00,37.0,20.1,30.47,South,170,0.0,4.5,50,0.00,,,0.00,VWS V12.08,2013-01-08 11:07:00,
2013-01-08 06:14:00,37.0,20.1,30.47,South,177,0.0,0.0,50,0.00,,,0.00,VWS V12.08,2013-01-08 11:14:00,
2013-01-08 06:20:00,37.0,20.1,30.47,South,170,0.0,0.0,50,0.00,,,0.00,VWS V12.08,2013-01-08 11:20:00,
2013-01-08 06:29:00,37.0,20.1,30.47,West,272,0.0,0.0,50,0.00,,,0.00,VWS V12.08,2013-01-08 11:29:00,
2013-01-08 06:35:00,37.0,20.1,30.47,WSW,239,0.0,0.0,50,0.00,,,0.00,VWS V12.08,2013-01-08 11:35:00,
2013-01-08 06:44:00,37.0,20.6,30.47,NW,315,0.0,0.0,51,0.00,,,0.00,VWS V12.08,2013-01-08 11:44:00,
2013-01-08 06:50:00,37.0,20.6,30.47,East,96,0.0,0.0,51,0.00,,,0.00,VWS V12.08,2013-01-08 11:50:00,
2013-01-08 06:59:00,37.0,20.6,30.47,East,96,0.0,0.0,51,0.00,,,0.00,VWS V12.08,2013-01-08 11:59:00,
2013-01-08 07:07:00,37.0,20.6,30.47,East,96,0.0,0.0,51,0.00,,,0.00,VWS V12.08,2013-01-08 12:07:00,
2013-01-08 07:14:00,36.9,20.4,30.50,North,7,0.0,0.0,51,0.00,,,0.00,VWS V12.08,2013-01-08 12:14:00,
2013-01-08 07:20:00,36.7,20.3,30.50,North,9,0.0,0.0,51,0.00,,,0.00,VWS V12.08,2013-01-08 12:20:00,
2013-01-08 07:29:00,36.9,20.4,30.47,WSW,249,2.2,5.4,51,0.00,,,0.00,VWS V12.08,2013-01-08 12:29:00,
2013-01-08 07:35:00,37.0,20.6,30.47,NNE,29,0.0,5.4,51,0.00,,,0.00,VWS V12.08,2013-01-08 12:35:00,
2013-01-08 07:44:00,37.4,20.9,30.50,SW,232,0.0,5.4,51,0.00,,,0.00,VWS V12.08,2013-01-08 12:44:00,
2013-01-08 07:50:00,37.6,21.1,30.50,NNW,336,0.0,3.1,51,0.00,,,0.00,VWS V12.08,2013-01-08 12:50:00,
2013-01-08 07:59:00,38.1,21.6,30.50,NNW,334,2.2,3.6,51,0.00,,,0.00,VWS V12.08,2013-01-08 12:59:00,
2013-01-08 08:07:00,38.3,21.8,30.50,NNE,19,2.7,3.6,51,0.00,,,0.00,VWS V12.08,2013-01-08 13:07:00,
2013-01-08 08:14:00,38.8,22.3,30.50,NW,307,0.0,4.0,51,0.00,,,0.00,VWS V12.08,2013-01-08 13:14:00,
2013-01-08 08:20:00,38.8,22.3,30.50,ENE,60,2.7,4.0,51,0.00,,,0.00,VWS V12.08,2013-01-08 13:20:00,
2013-01-08 08:29:00,39.0,22.4,30.50,NNW,339,3.1,5.8,51,0.00,,,0.00,VWS V12.08,2013-01-08 13:29:00,
2013-01-08 08:35:00,39.2,22.6,30.50,West,279,0.0,5.8,51,0.00,,,0.00,VWS V12.08,2013-01-08 13:35:00,
2013-01-08 08:44:00,39.6,22.9,30.50,NW,324,2.7,5.8,51,0.00,,,0.00,VWS V12.08,2013-01-08 13:44:00,
2013-01-08 08:50:00,39.9,23.3,30.50,NNW,339,2.2,3.6,51,0.00,,,0.00,VWS V12.08,2013-01-08 13:50:00,
2013-01-08 08:59:00,40.6,24.4,30.50,NNW,337,6.3,7.6,52,0.00,,,0.00,VWS V12.08,2013-01-08 13:59:00,
2013-01-08 09:06:00,40.8,24.1,30.50,WSW,248,4.9,7.6,51,0.00,,,0.00,VWS V12.08,2013-01-08 14:06:00,
2013-01-08 09:15:00,41.2,24.0,30.50,West,266,4.0,8.3,50,0.00,,,0.00,VWS V12.08,2013-01-08 14:15:00,
2013-01-08 09:20:00,41.5,24.3,30.50,NNE,29,2.7,8.3,50,0.00,,,0.00,VWS V12.08,2013-01-08 14:20:00,
2013-01-08 09:29:00,41.9,24.1,30.50,WSW,246,4.0,10.1,49,0.00,,,0.00,VWS V12.08,2013-01-08 14:29:00,
2013-01-08 09:35:00,42.3,24.5,30.50,SW,224,5.4,10.1,49,0.00,,,0.00,VWS V12.08,2013-01-08 14:35:00,
2013-01-08 09:45:00,42.6,23.8,30.50,West,268,5.4,10.1,47,0.00,,,0.00,VWS V12.08,2013-01-08 14:45:00,
2013-01-08 09:50:00,43.0,24.1,30.50,NW,321,2.2,8.7,47,0.00,,,0.00,VWS V12.08,2013-01-08 14:50:00,
2013-01-08 10:00:00,43.2,22.7,30.50,NNW,328,4.5,9.6,44,0.00,,,0.00,VWS V12.08,2013-01-08 15:00:00,
2013-01-08 10:08:00,43.5,23.1,30.50,NNW,348,10.5,10.5,44,0.00,,,0.00,VWS V12.08,2013-01-08 15:08:00,
2013-01-08 10:15:00,43.9,22.3,30.50,WNW,292,4.0,10.5,42,0.00,,,0.00,VWS V12.08,2013-01-08 15:15:00,
2013-01-08 10:20:00,44.2,22.6,30.50,NNW,334,3.6,10.5,42,0.00,,,0.00,VWS V12.08,2013-01-08 15:20:00,
2013-01-08 10:30:00,44.8,22.5,30.50,WSW,252,5.4,7.6,41,0.00,,,0.00,VWS V12.08,2013-01-08 15:30:00,
2013-01-08 10:35:00,45.1,22.9,30.50,West,277,5.8,7.6,41,0.00,,,0.00,VWS V12.08,2013-01-08 15:35:00,
2013-01-08 10:45:00,45.7,23.4,30.47,WSW,256,3.1,7.6,41,0.00,,,0.00,VWS V12.08,2013-01-08 15:45:00,
2013-01-08 10:50:00,46.0,23.1,30.47,WSW,255,3.6,7.6,40,0.00,,,0.00,VWS V12.08,2013-01-08 15:50:00,
2013-01-08 11:00:00,46.0,22.5,30.47,SW,221,4.0,8.7,39,0.00,,,0.00,VWS V12.08,2013-01-08 16:00:00,
2013-01-08 11:08:00,46.0,22.5,30.47,West,261,3.1,10.5,39,0.00,,,0.00,VWS V12.08,2013-01-08 16:08:00,
2013-01-08 11:15:00,45.9,22.3,30.47,WSW,239,3.1,9.2,39,0.00,,,0.00,VWS V12.08,2013-01-08 16:15:00,
2013-01-08 11:20:00,46.0,23.1,30.47,SSW,209,5.8,9.2,40,0.00,,,0.00,VWS V12.08,2013-01-08 16:20:00,
2013-01-08 11:29:00,46.2,22.6,30.47,WNW,294,5.8,8.1,39,0.00,,,0.00,VWS V12.08,2013-01-08 16:29:00,
2013-01-08 11:34:00,46.4,22.8,30.47,NW,322,7.6,8.1,39,0.00,,,0.00,VWS V12.08,2013-01-08 16:34:00,
2013-01-08 11:44:00,46.4,22.2,30.45,SW,226,5.8,10.5,38,0.00,,,0.00,VWS V12.08,2013-01-08 16:44:00,
2013-01-08 11:49:00,46.6,22.4,30.45,South,182,3.1,8.7,38,0.00,,,0.00,VWS V12.08,2013-01-08 16:49:00,
2013-01-08 11:59:00,46.8,22.5,30.45,SW,229,4.0,11.0,38,0.00,,,0.00,VWS V12.08,2013-01-08 16:59:00,
2013-01-08 12:07:00,46.6,21.7,30.45,NNW,334,11.0,11.0,37,0.00,,,0.00,VWS V12.08,2013-01-08 17:07:00,
2013-01-08 12:14:00,46.8,22.5,30.45,WSW,258,4.0,11.0,38,0.00,,,0.00,VWS V12.08,2013-01-08 17:14:00,
2013-01-08 12:19:00,47.1,22.8,30.45,West,268,3.1,11.0,38,0.00,,,0.00,VWS V12.08,2013-01-08 17:19:00,
2013-01-08 12:29:00,47.3,23.0,30.45,West,263,5.4,6.3,38,0.00,,,0.00,VWS V12.08,2013-01-08 17:29:00,
2013-01-08 12:35:00,47.1,22.8,30.45,West,261,7.2,8.3,38,0.00,,,0.00,VWS V12.08,2013-01-08 17:35:00,
2013-01-08 12:44:00,47.1,22.8,30.42,SSE,164,4.9,8.3,38,0.00,,,0.00,VWS V12.08,2013-01-08 17:44:00,
2013-01-08 12:50:00,46.9,22.7,30.42,West,268,5.4,6.3,38,0.00,,,0.00,VWS V12.08,2013-01-08 17:50:00,
2013-01-08 13:20:00,45.9,21.7,30.42,West,265,4.9,8.3,38,0.00,,,0.00,VWS V12.08,2013-01-08 18:20:00,
2013-01-08 13:25:00,45.9,21.7,30.42,WSW,256,3.1,8.3,38,0.00,,,0.00,VWS V12.08,2013-01-08 18:25:00,
2013-01-08 13:30:00,45.9,21.7,30.42,West,277,6.3,8.3,38,0.00,,,0.00,VWS V12.08,2013-01-08 18:30:00,
2013-01-08 13:40:00,45.9,21.7,30.42,NNW,346,6.3,8.3,38,0.00,,,0.00,VWS V12.08,2013-01-08 18:40:00,
2013-01-08 13:45:00,45.9,22.3,30.42,WNW,283,2.2,6.3,39,0.00,,,0.00,VWS V12.08,2013-01-08 18:45:00,
2013-01-08 13:55:00,45.9,22.3,30.42,West,264,0.0,8.1,39,0.00,,,0.00,VWS V12.08,2013-01-08 18:55:00,
2013-01-08 14:04:00,46.0,22.5,30.42,NNW,341,3.6,8.1,39,0.00,,,0.00,VWS V12.08,2013-01-08 19:04:00,
2013-01-08 14:10:00,46.0,22.5,30.42,SSE,155,4.5,8.3,39,0.00,,,0.00,VWS V12.08,2013-01-08 19:10:00,
2013-01-08 14:16:00,45.9,22.3,30.42,SW,223,3.6,8.3,39,0.00,,,0.00,VWS V12.08,2013-01-08 19:16:00,
2013-01-08 14:25:00,45.5,22.0,30.42,SW,236,2.2,7.6,39,0.00,,,0.00,VWS V12.08,2013-01-08 19:25:00,
2013-01-08 14:31:00,45.3,21.8,30.42,WSW,243,4.0,8.1,39,0.00,,,0.00,VWS V12.08,2013-01-08 19:31:00,
2013-01-08 14:40:00,45.1,21.7,30.45,WSW,242,3.1,8.1,39,0.00,,,0.00,VWS V12.08,2013-01-08 19:40:00,
2013-01-08 14:46:00,45.0,21.5,30.45,SSW,212,4.0,5.8,39,0.00,,,0.00,VWS V12.08,2013-01-08 19:46:00,
2013-01-08 14:55:00,44.8,21.4,30.45,SW,231,3.1,5.8,39,0.00,,,0.00,VWS V12.08,2013-01-08 19:55:00,
2013-01-08 15:04:00,44.6,21.2,30.45,West,260,4.9,5.8,39,0.00,,,0.00,VWS V12.08,2013-01-08 20:04:00,
2013-01-08 15:10:00,44.2,21.5,30.45,WNW,286,0.0,7.2,40,0.00,,,0.00,VWS V12.08,2013-01-08 20:10:00,
2013-01-08 15:16:00,44.2,21.5,30.45,NW,315,2.7,7.2,40,0.00,,,0.00,VWS V12.08,2013-01-08 20:16:00,
2013-01-08 15:25:00,44.1,21.3,30.45,WNW,303,0.0,6.3,40,0.00,,,0.00,VWS V12.08,2013-01-08 20:25:00,
2013-01-08 15:31:00,44.1,21.3,30.45,West,279,3.1,6.3,40,0.00,,,0.00,VWS V12.08,2013-01-08 20:31:00,
2013-01-08 15:40:00,43.7,21.0,30.45,SSW,203,4.9,6.3,40,0.00,,,0.00,VWS V12.08,2013-01-08 20:40:00,
2013-01-08 15:46:00,43.7,21.0,30.45,NW,318,3.1,6.7,40,0.00,,,0.00,VWS V12.08,2013-01-08 20:46:00,
2013-01-08 15:55:00,43.5,20.8,30.42,WNW,301,0.0,8.7,40,0.00,,,0.00,VWS V12.08,2013-01-08 20:55:00,
2013-01-08 16:04:00,43.5,20.8,30.42,SW,235,3.6,8.7,40,0.00,,,0.00,VWS V12.08,2013-01-08 21:04:00,
2013-01-08 16:10:00,43.3,20.6,30.42,SW,214,2.7,5.8,40,0.00,,,0.00,VWS V12.08,2013-01-08 21:10:00,
2013-01-08 16:16:00,43.3,20.6,30.42,SW,218,5.8,6.7,40,0.00,,,0.00,VWS V12.08,2013-01-08 21:16:00,
2013-01-08 16:25:00,43.0,20.3,30.45,SW,236,2.7,5.8,40,0.00,,,0.00,VWS V12.08,2013-01-08 21:25:00,
2013-01-08 16:31:00,43.0,20.3,30.45,WSW,254,2.7,5.8,40,0.00,,,0.00,VWS V12.08,2013-01-08 21:31:00,
2013-01-08 16:40:00,42.8,20.2,30.45,SW,234,2.7,5.8,40,0.00,,,0.00,VWS V12.08,2013-01-08 21:40:00,
2013-01-08 16:46:00,42.8,20.2,30.45,WNW,283,2.2,5.4,40,0.00,,,0.00,VWS V12.08,2013-01-08 21:46:00,
2013-01-08 16:55:00,42.4,19.8,30.45,West,272,2.7,5.4,40,0.00,,,0.00,VWS V12.08,2013-01-08 21:55:00,
2013-01-08 17:04:00,42.3,19.7,30.45,West,259,2.7,5.8,40,0.00,,,0.00,VWS V12.08,2013-01-08 22:04:00,
2013-01-08 17:11:00,42.1,19.5,30.45,SSW,209,2.2,4.0,40,0.00,,,0.00,VWS V12.08,2013-01-08 22:11:00,
2013-01-08 17:16:00,41.9,19.4,30.45,NW,321,2.7,4.0,40,0.00,,,0.00,VWS V12.08,2013-01-08 22:16:00,
2013-01-08 17:25:00,41.5,19.6,30.45,WNW,301,0.0,4.9,41,0.00,,,0.00,VWS V12.08,2013-01-08 22:25:00,
2013-01-08 17:31:00,41.5,19.6,30.45,WNW,293,2.2,4.9,41,0.00,,,0.00,VWS V12.08,2013-01-08 22:31:00,
2013-01-08 17:40:00,41.4,19.5,30.45,West,280,2.7,4.9,41,0.00,,,0.00,VWS V12.08,2013-01-08 22:40:00,
2013-01-08 17:46:00,41.2,19.3,30.45,WSW,255,0.0,2.7,41,0.00,,,0.00,VWS V12.08,2013-01-08 22:46:00,
2013-01-08 17:56:00,41.0,19.1,30.45,WNW,288,0.0,4.5,41,0.00,,,0.00,VWS V12.08,2013-01-08 22:56:00,
2013-01-08 18:04:00,41.0,19.1,30.45,East,94,0.0,4.5,41,0.00,,,0.00,VWS V12.08,2013-01-08 23:04:00,
2013-01-08 18:11:00,40.8,19.0,30.47,North,2,0.0,0.0,41,0.00,,,0.00,VWS V12.08,2013-01-08 23:11:00,
2013-01-08 18:16:00,40.6,18.8,30.47,North,1,0.0,0.0,41,0.00,,,0.00,VWS V12.08,2013-01-08 23:16:00,
2013-01-08 18:26:00,40.5,18.6,30.47,NW,326,0.0,2.7,41,0.00,,,0.00,VWS V12.08,2013-01-08 23:26:00,
2013-01-08 18:31:00,40.3,18.5,30.47,West,281,0.0,2.7,41,0.00,,,0.00,VWS V12.08,2013-01-08 23:31:00,
2013-01-08 18:41:00,40.3,18.5,30.47,West,269,0.0,2.7,41,0.00,,,0.00,VWS V12.08,2013-01-08 23:41:00,
2013-01-08 18:46:00,40.1,18.3,30.47,NW,317,2.2,2.7,41,0.00,,,0.00,VWS V12.08,2013-01-08 23:46:00,
2013-01-08 18:56:00,39.9,18.7,30.47,WSW,258,0.0,3.1,42,0.00,,,0.00,VWS V12.08,2013-01-08 23:56:00,
2013-01-08 19:04:00,39.9,18.7,30.47,West,271,0.0,3.6,42,0.00,,,0.00,VWS V12.08,2013-01-09 00:04:00,
2013-01-08 19:11:00,40.1,18.9,30.47,WSW,247,2.7,4.0,42,0.00,,,0.00,VWS V12.08,2013-01-09 00:11:00,
2013-01-08 19:16:00,40.3,19.6,30.47,NNW,335,0.0,4.0,43,0.00,,,0.00,VWS V12.08,2013-01-09 00:16:00,
2013-01-08 19:26:00,40.5,19.7,30.47,WNW,295,0.0,2.7,43,0.00,,,0.00,VWS V12.08,2013-01-09 00:26:00,
2013-01-08 19:31:00,40.6,19.9,30.47,WSW,246,2.7,3.1,43,0.00,,,0.00,VWS V12.08,2013-01-09 00:31:00,
2013-01-08 19:41:00,40.8,20.1,30.47,NW,305,2.2,3.6,43,0.00,,,0.00,VWS V12.08,2013-01-09 00:41:00,
2013-01-08 19:46:00,40.8,20.1,30.47,WSW,250,2.7,3.6,43,0.00,,,0.00,VWS V12.08,2013-01-09 00:46:00,
2013-01-08 19:56:00,40.8,20.1,30.47,NW,310,0.0,4.5,43,0.00,,,0.00,VWS V12.08,2013-01-09 00:56:00,
2013-01-08 20:05:00,40.8,20.1,30.47,West,263,0.0,4.5,43,0.00,,,0.00,VWS V12.08,2013-01-09 01:05:00,
2013-01-08 20:10:00,40.8,20.6,30.47,West,263,3.6,6.3,44,0.00,,,0.00,VWS V12.08,2013-01-09 01:10:00,
2013-01-08 20:16:00,40.8,20.6,30.47,North,349,0.0,6.3,44,0.00,,,0.00,VWS V12.08,2013-01-09 01:16:00,
2013-01-08 20:25:00,40.6,21.0,30.47,West,260,2.7,3.1,45,0.00,,,0.00,VWS V12.08,2013-01-09 01:25:00,
2013-01-08 20:31:00,40.6,20.5,30.47,WNW,298,0.0,3.1,44,0.00,,,0.00,VWS V12.08,2013-01-09 01:31:00,
2013-01-08 20:40:00,40.6,20.5,30.47,WNW,299,0.0,3.1,44,0.00,,,0.00,VWS V12.08,2013-01-09 01:40:00,
2013-01-08 20:45:00,40.5,20.3,30.47,West,276,0.0,3.1,44,0.00,,,0.00,VWS V12.08,2013-01-09 01:45:00,
2013-01-08 20:55:00,40.5,20.3,30.47,NNW,337,2.7,3.6,44,0.00,,,0.00,VWS V12.08,2013-01-09 01:55:00,
2013-01-08 21:04:00,40.5,20.3,30.47,NNW,344,3.6,4.0,44,0.00,,,0.00,VWS V12.08,2013-01-09 02:04:00,
2013-01-08 21:10:00,40.5,20.8,30.47,North,353,0.0,4.0,45,0.00,,,0.00,VWS V12.08,2013-01-09 02:10:00,
2013-01-08 21:16:00,40.5,20.8,30.47,West,270,0.0,4.0,45,0.00,,,0.00,VWS V12.08,2013-01-09 02:16:00,
2013-01-08 21:25:00,40.3,20.6,30.47,West,276,0.0,3.1,45,0.00,,,0.00,VWS V12.08,2013-01-09 02:25:00,
2013-01-08 21:31:00,40.3,20.6,30.47,West,275,0.0,3.6,45,0.00,,,0.00,VWS V12.08,2013-01-09 02:31:00,
2013-01-08 21:40:00,40.1,20.5,30.47,West,263,0.0,4.0,45,0.00,,,0.00,VWS V12.08,2013-01-09 02:40:00,
2013-01-08 21:46:00,39.9,20.3,30.47,NNW,334,0.0,4.9,45,0.00,,,0.00,VWS V12.08,2013-01-09 02:46:00,
2013-01-08 21:55:00,39.9,20.3,30.47,WNW,295,0.0,4.9,45,0.00,,,0.00,VWS V12.08,2013-01-09 02:55:00,
2013-01-08 22:04:00,39.7,20.1,30.47,WNW,295,0.0,4.9,45,0.00,,,0.00,VWS V12.08,2013-01-09 03:04:00,
2013-01-08 22:10:00,39.4,19.8,30.47,WNW,295,0.0,0.0,45,0.00,,,0.00,VWS V12.08,2013-01-09 03:10:00,
2013-01-08 22:16:00,39.2,19.7,30.47,NW,324,0.0,0.0,45,0.00,,,0.00,VWS V12.08,2013-01-09 03:16:00,
2013-01-08 22:25:00,39.0,19.5,30.47,NNW,333,0.0,2.7,45,0.00,,,0.00,VWS V12.08,2013-01-09 03:25:00,
2013-01-08 22:31:00,38.8,19.3,30.47,North,10,0.0,2.7,45,0.00,,,0.00,VWS V12.08,2013-01-09 03:31:00,
2013-01-08 22:40:00,38.7,19.2,30.47,North,10,0.0,2.7,45,0.00,,,0.00,VWS V12.08,2013-01-09 03:40:00,
2013-01-08 22:46:00,38.7,19.2,30.47,North,10,0.0,0.0,45,0.00,,,0.00,VWS V12.08,2013-01-09 03:46:00,
2013-01-08 22:55:00,38.3,18.8,30.47,North,10,0.0,0.0,45,0.00,,,0.00,VWS V12.08,2013-01-09 03:55:00,
2013-01-08 23:04:00,38.1,18.7,30.47,North,10,0.0,0.0,45,0.00,,,0.00,VWS V12.08,2013-01-09 04:04:00,
2013-01-08 23:11:00,37.9,18.5,30.47,North,10,0.0,0.0,45,0.00,,,0.00,VWS V12.08,2013-01-09 04:11:00,
2013-01-08 23:16:00,37.8,18.3,30.47,North,10,0.0,0.0,45,0.00,,,0.00,VWS V12.08,2013-01-09 04:16:00,
2013-01-08 23:25:00,37.4,18.0,30.47,North,10,0.0,0.0,45,0.00,,,0.00,VWS V12.08,2013-01-09 04:25:00,
2013-01-08 23:31:00,37.2,17.9,30.47,North,10,0.0,0.0,45,0.00,,,0.00,VWS V12.08,2013-01-09 04:31:00,
2013-01-08 23:41:00,37.0,17.7,30.47,North,10,0.0,0.0,45,0.00,,,0.00,VWS V12.08,2013-01-09 04:41:00,
2013-01-08 23:47:00,37.0,17.7,30.47,North,10,0.0,0.0,45,0.00,,,0.00,VWS V12.08,2013-01-09 04:47:00,
2013-01-08 23:55:00,37.0,18.2,30.47,NW,321,0.0,0.0,46,0.00,,,0.00,VWS V12.08,2013-01-09 04:55:00,